32.1°F
Current conditions from King Hill
Updated every 5 minutes
 
  Saturday November 1, 2014

Station Historical Data
Daily Summary for March 24, 2012 Units:  Metric    English   Both
« Previous Day
Next Day »
Daily Weekly Monthly Yearly Custom
  High: Low: Average:
Temperature: 7.6 °C 3.1 °C 5.2 °C
Dew Point: 1.3 °C -11.3 °C -5.3 °C
Humidity: 79% 34% 48%
Wind Speed: 8km/h 1.6km/h 3.1km/h
Wind Gust: 19.3km/h - -
Wind- - ESE
Pressure: 1021.2 hPa 1014.4 hPa -
Precipitation: 0 mm    
Historical Graphs
 
 
Tabular Data for March 24, 2012
Time Temperature Dew Point Pressure Wind Wind Speed Wind Gust Humidity Daily Rainfall
00:05 7.2 °C -6.9 °C 1019.5 hPa NNE 4.8 km/h 12.9 km/h 36% 0 mm
00:10 7.2 °C -6.9 °C 1019.5 hPa NE 1.6 km/h 11.3 km/h 36% 0 mm
00:15 7.2 °C -6.6 °C 1019.5 hPa Calm   11.3 km/h 37% 0 mm
00:20 6.9 °C -6.1 °C 1019.5 hPa NE 1.6 km/h 11.3 km/h 39% 0 mm
00:25 7 °C -7.8 °C 1019.5 hPa NNE 4.8 km/h 11.3 km/h 34% 0 mm
00:35 7 °C -6.3 °C 1019.5 hPa NNE 1.6 km/h 11.3 km/h 38% 0 mm
00:40 7 °C -7.1 °C 1019.5 hPa Calm   11.3 km/h 36% 0 mm
00:45 6.9 °C -5.7 °C 1019.5 hPa Calm   11.3 km/h 40% 0 mm
00:50 6.8 °C -7.3 °C 1019.5 hPa NNE 3.2 km/h 11.3 km/h 36% 0 mm
00:55 6.8 °C -7.2 °C 1019.5 hPa NE 1.6 km/h 9.7 km/h 36% 0 mm
01:00 6.8 °C -7.2 °C 1019.5 hPa NE 1.6 km/h 14.5 km/h 36% 0 mm
01:05 6.8 °C -6.9 °C 1019.5 hPa NE 1.6 km/h 14.5 km/h 37% 0 mm
01:10 6.8 °C -7.3 °C 1019.9 hPa NNE 3.2 km/h 14.5 km/h 36% 0 mm
01:15 6.8 °C -6.9 °C 1019.5 hPa NNE 4.8 km/h 14.5 km/h 37% 0 mm
01:20 6.8 °C -6.9 °C 1019.5 hPa Calm   14.5 km/h 37% 0 mm
01:25 6.6 °C -6.7 °C 1019.9 hPa NNE 1.6 km/h 12.9 km/h 38% 0 mm
01:30 6.5 °C -6.4 °C 1019.9 hPa NNE 3.2 km/h 12.9 km/h 39% 0 mm
01:35 6.4 °C -6.8 °C 1019.9 hPa NNE 3.2 km/h 12.9 km/h 38% 0 mm
01:40 6.3 °C -7.7 °C 1019.9 hPa NNE 6.4 km/h 17.7 km/h 36% 0 mm
01:45 6.3 °C -7.7 °C 1019.9 hPa NNE 1.6 km/h 17.7 km/h 36% 0 mm
01:50 6.4 °C -7.9 °C 1019.9 hPa NE 4.8 km/h 12.9 km/h 35% 0 mm
01:55 6.5 °C -7.9 °C 1019.9 hPa NNE 3.2 km/h 12.9 km/h 35% 0 mm
02:00 6.4 °C -7.6 °C 1019.9 hPa NE 4.8 km/h 14.5 km/h 36% 0 mm
02:05 6.4 °C -7.9 °C 1019.9 hPa NNE 1.6 km/h 14.5 km/h 35% 0 mm
02:10 6.4 °C -7.6 °C 1019.5 hPa NNE 1.6 km/h 14.5 km/h 36% 0 mm
02:15 6.3 °C -8 °C 1019.9 hPa NE 1.6 km/h 14.5 km/h 35% 0 mm
02:20 6.3 °C -7.3 °C 1019.5 hPa NNE 1.6 km/h 12.9 km/h 37% 0 mm
02:25 6.3 °C -7.7 °C 1019.5 hPa NE 1.6 km/h 12.9 km/h 36% 0 mm
02:35 6.2 °C -7.4 °C 1019.5 hPa NNE 1.6 km/h 16.1 km/h 37% 0 mm
02:40 6.1 °C -7.5 °C 1019.9 hPa NE 3.2 km/h 16.1 km/h 37% 0 mm
02:45 6.1 °C -7.9 °C 1019.9 hPa NNE 3.2 km/h 14.5 km/h 36% 0 mm
02:50 6.1 °C -6.9 °C 1019.9 hPa Calm   9.7 km/h 39% 0 mm
03:00 5.8 °C -7.4 °C 1019.9 hPa NE 4.8 km/h 14.5 km/h 38% 0 mm
03:05 5.7 °C -7.9 °C 1019.5 hPa NNE 3.2 km/h 14.5 km/h 37% 0 mm
03:10 5.6 °C -7.7 °C 1019.5 hPa NE 3.2 km/h 14.5 km/h 38% 0 mm
03:15 5.4 °C -8.2 °C 1019.5 hPa NE 3.2 km/h 16.1 km/h 37% 0 mm
03:20 5.3 °C -7.9 °C 1019.5 hPa NNE 6.4 km/h 17.7 km/h 38% 0 mm
03:25 5.2 °C -7.9 °C 1019.5 hPa NE 1.6 km/h 17.7 km/h 38% 0 mm
03:30 5.1 °C -8.1 °C 1019.5 hPa NNE 1.6 km/h 14.5 km/h 38% 0 mm
03:40 5.1 °C -8.1 °C 1019.5 hPa NE 3.2 km/h 17.7 km/h 38% 0 mm
03:45 5.1 °C -7.8 °C 1019.5 hPa NNE 3.2 km/h 12.9 km/h 39% 0 mm
03:50 4.9 °C -7.9 °C 1019.5 hPa Calm   9.7 km/h 39% 0 mm
04:00 4.8 °C -7.7 °C 1019.5 hPa Calm   9.7 km/h 40% 0 mm
04:05 4.7 °C -7.7 °C 1019.5 hPa Calm   4.8 km/h 40% 0 mm
04:10 4.6 °C -7.2 °C 1019.5 hPa Calm   9.7 km/h 42% 0 mm
04:15 4.4 °C -7.3 °C 1019.5 hPa Calm   9.7 km/h 42% 0 mm
04:20 4.2 °C -7.6 °C 1019.5 hPa Calm   8 km/h 42% 0 mm
04:25 4.1 °C -7.4 °C 1019.5 hPa Calm   8 km/h 43% 0 mm
04:30 3.9 °C -7.2 °C 1019.5 hPa Calm     44% 0 mm
04:35 3.9 °C -7.6 °C 1019.9 hPa Calm   4.8 km/h 43% 0 mm
04:40 3.9 °C -7.3 °C 1019.9 hPa NNE 1.6 km/h 11.3 km/h 44% 0 mm
04:45 3.9 °C -8.5 °C 1019.9 hPa NNE 1.6 km/h 11.3 km/h 40% 0 mm
04:55 3.9 °C -8.8 °C 1020.2 hPa Calm   6.4 km/h 39% 0 mm
05:00 3.9 °C -9.1 °C 1020.2 hPa Calm   8 km/h 38% 0 mm
05:05 3.9 °C -8.8 °C 1020.2 hPa Calm   8 km/h 39% 0 mm
05:10 3.8 °C -8.2 °C 1020.2 hPa Calm   3.2 km/h 41% 0 mm
05:15 3.8 °C -8.9 °C 1020.2 hPa Calm   4.8 km/h 39% 0 mm
05:20 3.7 °C -8.3 °C 1020.2 hPa Calm   4.8 km/h 41% 0 mm
05:25 3.7 °C -8.9 °C 1020.2 hPa NNE 1.6 km/h 8 km/h 39% 0 mm
05:30 3.8 °C -9.2 °C 1019.9 hPa Calm   8 km/h 38% 0 mm
05:35 3.8 °C -8.9 °C 1020.2 hPa Calm   6.4 km/h 39% 0 mm
05:40 3.8 °C -8.9 °C 1019.9 hPa Calm   4.8 km/h 39% 0 mm
05:45 3.7 °C -9.3 °C 1020.2 hPa Calm   4.8 km/h 38% 0 mm
05:50 3.7 °C -9.6 °C 1019.9 hPa Calm   6.4 km/h 37% 0 mm
06:00 3.7 °C -9.3 °C 1019.9 hPa Calm   4.8 km/h 38% 0 mm
06:05 3.7 °C -9.3 °C 1019.9 hPa Calm   6.4 km/h 38% 0 mm
06:10 3.6 °C -9.7 °C 1019.9 hPa Calm   6.4 km/h 37% 0 mm
06:15 3.6 °C -9.8 °C 1019.9 hPa NNE 3.2 km/h 9.7 km/h 37% 0 mm
06:20 3.6 °C -9.1 °C 1019.9 hPa NE 1.6 km/h 9.7 km/h 39% 0 mm
06:30 3.4 °C -9.2 °C 1019.9 hPa NNE 3.2 km/h 12.9 km/h 39% 0 mm
06:40 3.3 °C -10.3 °C 1019.9 hPa Calm   11.3 km/h 36% 0 mm
06:45 3.3 °C -10 °C 1020.2 hPa Calm   11.3 km/h 37% 0 mm
06:50 3.3 °C -10.1 °C 1020.2 hPa Calm   11.3 km/h 37% 0 mm
06:55 3.2 °C -10.8 °C 1020.2 hPa NNE 1.6 km/h 12.9 km/h 35% 0 mm
07:00 3.2 °C -10.8 °C 1020.2 hPa Calm   12.9 km/h 35% 0 mm
07:05 3.1 °C -10.9 °C 1020.2 hPa NNE 1.6 km/h 14.5 km/h 35% 0 mm
07:10 3.1 °C -10.9 °C 1020.2 hPa Calm   14.5 km/h 35% 0 mm
07:15 3.1 °C -11.3 °C 1020.2 hPa NNE 3.2 km/h 11.3 km/h 34% 0 mm
07:20 3.1 °C -11.3 °C 1020.2 hPa ENE 1.6 km/h 19.3 km/h 34% 0 mm
07:25 3.1 °C -10.6 °C 1020.5 hPa Calm   19.3 km/h 36% 0 mm
07:30 3.1 °C -10.9 °C 1020.2 hPa NNE 1.6 km/h 9.7 km/h 35% 0 mm
07:35 3.1 °C -10.6 °C 1020.5 hPa NNE 3.2 km/h 11.3 km/h 36% 0 mm
07:40 3.1 °C -11.3 °C 1020.5 hPa Calm   14.5 km/h 34% 0 mm
07:45 3.1 °C -10.6 °C 1020.5 hPa North 1.6 km/h 14.5 km/h 36% 0 mm
07:50 3.1 °C -10.2 °C 1020.9 hPa Calm   9.7 km/h 37% 0 mm
07:55 3.1 °C -9.5 °C 1020.9 hPa Calm   3.2 km/h 39% 0 mm
08:00 3.2 °C -9.1 °C 1020.9 hPa Calm   1.6 km/h 40% 0 mm
08:05 3.3 °C -9.1 °C 1020.9 hPa Calm   1.6 km/h 40% 0 mm
08:10 3.3 °C -9.3 °C 1020.9 hPa Calm   4.8 km/h 39% 0 mm
08:15 3.3 °C -9.7 °C 1021.2 hPa NNW 1.6 km/h 11.3 km/h 38% 0 mm
08:20 3.3 °C -9.4 °C 1020.9 hPa Calm   11.3 km/h 39% 0 mm
08:25 3.3 °C -9 °C 1020.9 hPa Calm   6.4 km/h 40% 0 mm
08:30 3.4 °C -9.6 °C 1020.9 hPa NE 1.6 km/h 6.4 km/h 38% 0 mm
08:35 3.4 °C -9.6 °C 1020.9 hPa Calm   9.7 km/h 38% 0 mm
08:40 3.3 °C -10 °C 1020.9 hPa Calm   9.7 km/h 37% 0 mm
08:45 3.3 °C -9.3 °C 1020.9 hPa Calm   4.8 km/h 39% 0 mm
08:55 3.3 °C -9.7 °C 1020.9 hPa NNE 3.2 km/h 11.3 km/h 38% 0 mm
09:00 3.3 °C -9.7 °C 1020.5 hPa Calm   11.3 km/h 38% 0 mm
09:05 3.4 °C -9.3 °C 1020.5 hPa Calm   6.4 km/h 39% 0 mm
09:10 3.4 °C -9.2 °C 1020.5 hPa Calm   6.4 km/h 39% 0 mm
09:15 3.6 °C -9.1 °C 1020.5 hPa Calm   9.7 km/h 39% 0 mm
09:20 3.6 °C -9.4 °C 1020.5 hPa Calm   9.7 km/h 38% 0 mm
09:25 3.7 °C -8.9 °C 1020.5 hPa Calm   6.4 km/h 39% 0 mm
09:30 3.7 °C -9.6 °C 1020.2 hPa Calm   8 km/h 37% 0 mm
09:35 3.7 °C -9.3 °C 1020.2 hPa Calm   8 km/h 38% 0 mm
09:45 3.8 °C -9.2 °C 1020.2 hPa Calm   4.8 km/h 38% 0 mm
09:50 3.9 °C -8.8 °C 1020.5 hPa Calm   9.7 km/h 39% 0 mm
09:55 4.1 °C -8 °C 1020.2 hPa Calm   9.7 km/h 41% 0 mm
10:00 4.3 °C -8.2 °C 1020.2 hPa Calm   8 km/h 40% 0 mm
10:05 4.4 °C -8.3 °C 1020.2 hPa Calm   8 km/h 39% 0 mm
10:10 4.5 °C -8.9 °C 1020.2 hPa Calm   6.4 km/h 37% 0 mm
10:15 4.5 °C -8.3 °C 1020.2 hPa Calm   6.4 km/h 39% 0 mm
10:20 4.6 °C -8.6 °C 1020.2 hPa Calm   6.4 km/h 38% 0 mm
10:25 4.6 °C -8.5 °C 1019.9 hPa Calm   6.4 km/h 38% 0 mm
10:30 4.6 °C -8.8 °C 1019.9 hPa Calm   1.6 km/h 37% 0 mm
10:35 4.7 °C -8.8 °C 1019.9 hPa Calm   1.6 km/h 37% 0 mm
10:40 4.7 °C -8.4 °C 1020.2 hPa Calm   3.2 km/h 38% 0 mm
10:45 5.1 °C -8.8 °C 1019.9 hPa Calm   4.8 km/h 36% 0 mm
10:50 5.2 °C -8.7 °C 1020.2 hPa ENE 1.6 km/h 4.8 km/h 36% 0 mm
11:00 5.5 °C -8.8 °C 1020.2 hPa WNW 4.8 km/h 6.4 km/h 35% 0 mm
11:05 5.4 °C -8.8 °C 1020.2 hPa Calm   6.4 km/h 35% 0 mm
11:10 5.6 °C -8.7 °C 1020.2 hPa Calm   6.4 km/h 35% 0 mm
11:15 5.6 °C -8.7 °C 1020.2 hPa Calm   4.8 km/h 35% 0 mm
11:20 5.6 °C -7.7 °C 1020.2 hPa WNW 3.2 km/h 8 km/h 38% 0 mm
11:25 5.4 °C -7.4 °C 1019.9 hPa NW 3.2 km/h 8 km/h 39% 0 mm
11:30 5.4 °C -6.8 °C 1019.9 hPa WNW 3.2 km/h 8 km/h 41% 0 mm
11:35 5.6 °C -6.1 °C 1019.9 hPa NW 3.2 km/h 6.4 km/h 43% 0 mm
11:40 5.7 °C -5.9 °C 1019.9 hPa WNW 4.8 km/h 8 km/h 43% 0 mm
11:45 5.8 °C -5.6 °C 1019.9 hPa WNW 3.2 km/h 8 km/h 44% 0 mm
11:50 6 °C -6.6 °C 1019.9 hPa Calm   8 km/h 40% 0 mm
11:55 6.1 °C -6.2 °C 1019.9 hPa Calm   6.4 km/h 41% 0 mm
12:00 6.3 °C -6.3 °C 1019.9 hPa Calm   4.8 km/h 40% 0 mm
12:05 6.4 °C -6.2 °C 1019.9 hPa Calm   4.8 km/h 40% 0 mm
12:10 6.7 °C -6 °C 1019.5 hPa Calm   4.8 km/h 40% 0 mm
12:15 7 °C -6 °C 1019.5 hPa Calm   1.6 km/h 39% 0 mm
12:20 7.4 °C -6.3 °C 1019.5 hPa NW 3.2 km/h 6.4 km/h 37% 0 mm
12:25 7.4 °C -6.3 °C 1019.5 hPa NNW 1.6 km/h 9.7 km/h 37% 0 mm
12:30 7.5 °C -6.3 °C 1019.5 hPa Calm   9.7 km/h 37% 0 mm
12:35 7.3 °C -5.4 °C 1019.5 hPa WNW 6.4 km/h 11.3 km/h 40% 0 mm
12:40 6.9 °C -6.1 °C 1019.2 hPa West 1.6 km/h 11.3 km/h 39% 0 mm
12:45 6.9 °C -5.4 °C 1019.2 hPa Calm   8 km/h 41% 0 mm
12:50 7.2 °C -5.8 °C 1019.2 hPa WNW 1.6 km/h 6.4 km/h 39% 0 mm
12:55 7.1 °C -5 °C 1019.2 hPa WNW 8 km/h 9.7 km/h 42% 0 mm
13:00 6.8 °C -4.9 °C 1019.2 hPa NW 4.8 km/h 12.9 km/h 43% 0 mm
13:05 6.4 °C -4.7 °C 1019.5 hPa WNW 6.4 km/h 16.1 km/h 45% 0 mm
13:10 6 °C -4.8 °C 1019.5 hPa West 4.8 km/h 16.1 km/h 46% 0 mm
13:15 5.8 °C -4.7 °C 1019.5 hPa NW 8 km/h 14.5 km/h 47% 0 mm
13:20 5.8 °C -4.6 °C 1019.5 hPa NW 3.2 km/h 14.5 km/h 47% 0 mm
13:25 5.9 °C -4.2 °C 1019.5 hPa WNW 8 km/h 11.3 km/h 48% 0 mm
13:30 6 °C -4.4 °C 1019.5 hPa NW 6.4 km/h 12.9 km/h 47% 0 mm
13:35 6.2 °C -4.3 °C 1019.5 hPa NW 4.8 km/h 17.7 km/h 47% 0 mm
13:40 6.2 °C -4.6 °C 1019.5 hPa NNW 8 km/h 17.7 km/h 46% 0 mm
13:44 6.1 °C -4.1 °C 1019.5 hPa NW 3.2 km/h 14.5 km/h 48% 0 mm
13:50 6.4 °C -4.1 °C 1019.2 hPa NNW 1.6 km/h 11.3 km/h 47% 0 mm
13:55 6.8 °C -4 °C 1019.2 hPa NW 1.6 km/h 6.4 km/h 46% 0 mm
14:00 7.1 °C -4.1 °C 1019.2 hPa North 1.6 km/h 8 km/h 45% 0 mm
14:05 7.2 °C -3.6 °C 1019.2 hPa Calm   8 km/h 46% 0 mm
14:10 7.2 °C -4.6 °C 1018.8 hPa Calm     43% 0 mm
14:14 7 °C -4.4 °C 1018.8 hPa Calm     44% 0 mm
14:20 7 °C -4.7 °C 1018.8 hPa Calm     43% 0 mm
14:25 7.1 °C -4.7 °C 1018.5 hPa Calm   3.2 km/h 43% 0 mm
14:30 7.2 °C -4.3 °C 1018.5 hPa Calm   3.2 km/h 44% 0 mm
14:40 7.4 °C -4.7 °C 1018.2 hPa North 3.2 km/h 6.4 km/h 42% 0 mm
14:44 7.3 °C -4.4 °C 1018.5 hPa North 3.2 km/h 6.4 km/h 43% 0 mm
14:50 7.3 °C -4.5 °C 1018.5 hPa Calm   6.4 km/h 43% 0 mm
14:55 7.3 °C -3.8 °C 1018.2 hPa Calm   6.4 km/h 45% 0 mm
15:00 7.3 °C -4.4 °C 1018.2 hPa North 1.6 km/h 6.4 km/h 43% 0 mm
15:05 7.4 °C -4 °C 1018.2 hPa Calm   6.4 km/h 44% 0 mm
15:09 7.6 °C -4.2 °C 1018.2 hPa North 1.6 km/h 6.4 km/h 43% 0 mm
15:15 7.6 °C -4.2 °C 1018.2 hPa North 3.2 km/h 6.4 km/h 43% 0 mm
15:20 7.6 °C -4.5 °C 1018.2 hPa Calm   6.4 km/h 42% 0 mm
15:25 7.6 °C -4.2 °C 1018.2 hPa Calm   3.2 km/h 43% 0 mm
15:29 7.4 °C -4.3 °C 1018.2 hPa Calm   3.2 km/h 43% 0 mm
15:35 7.5 °C -4.3 °C 1017.8 hPa Calm   4.8 km/h 43% 0 mm
15:45 7.6 °C -4.6 °C 1017.8 hPa Calm   4.8 km/h 42% 0 mm
15:49 7.6 °C -4.5 °C 1017.8 hPa Calm   1.6 km/h 42% 0 mm
15:55 7.6 °C -4.2 °C 1017.8 hPa Calm   1.6 km/h 43% 0 mm
16:00 7.6 °C -4.6 °C 1017.8 hPa Calm   4.8 km/h 42% 0 mm
16:05 7.3 °C -4.1 °C 1017.8 hPa Calm   4.8 km/h 44% 0 mm
16:10 7.3 °C -4.8 °C 1017.5 hPa North 1.6 km/h 4.8 km/h 42% 0 mm
16:14 7.2 °C -4.6 °C 1017.5 hPa Calm   4.8 km/h 43% 0 mm
16:20 7.2 °C -4.3 °C 1017.5 hPa Calm   4.8 km/h 44% 0 mm
16:25 7.1 °C -4.7 °C 1017.5 hPa Calm   1.6 km/h 43% 0 mm
16:35 7 °C -4.4 °C 1017.5 hPa Calm   1.6 km/h 44% 0 mm
16:40 7.1 °C -4.7 °C 1017.5 hPa Calm   1.6 km/h 43% 0 mm
16:45 7.1 °C -4.4 °C 1017.5 hPa Calm     44% 0 mm
16:50 7.1 °C -4 °C 1017.5 hPa North 1.6 km/h 4.8 km/h 45% 0 mm
16:55 7.1 °C -3.4 °C 1017.5 hPa Calm   4.8 km/h 47% 0 mm
17:00 7.1 °C -2.9 °C 1017.5 hPa Calm   4.8 km/h 49% 0 mm
17:05 6.8 °C -0.2 °C 1017.5 hPa Calm     61% 0 mm
17:09 6.4 °C 0.1 °C 1017.5 hPa Calm     64% 0 mm
17:15 5.9 °C 0.6 °C 1017.5 hPa Calm     69% 0 mm
17:20 5.6 °C 0.9 °C 1017.5 hPa Calm   1.6 km/h 72% 0 mm
17:25 5.5 °C 0.7 °C 1017.5 hPa North 1.6 km/h 4.8 km/h 71% 0 mm
17:30 5.3 °C 0.1 °C 1017.5 hPa NW 1.6 km/h 6.4 km/h 69% 0 mm
17:35 5.2 °C -0.3 °C 1017.5 hPa Calm   6.4 km/h 68% 0 mm
17:45 5.1 °C -0.4 °C 1017.5 hPa Calm     68% 0 mm
17:50 5.1 °C -0.6 °C 1017.2 hPa Calm     67% 0 mm
17:55 5 °C -0.8 °C 1017.2 hPa Calm     66% 0 mm
18:00 4.9 °C -0.7 °C 1017.2 hPa Calm     67% 0 mm
18:05 4.9 °C -0.7 °C 1017.2 hPa Calm     67% 0 mm
18:10 4.8 °C -0.8 °C 1017.2 hPa Calm     67% 0 mm
18:14 4.8 °C -0.8 °C 1017.2 hPa Calm     67% 0 mm
18:20 4.8 °C -0.4 °C 1016.8 hPa Calm   1.6 km/h 69% 0 mm
18:25 4.8 °C -0.6 °C 1017.2 hPa Calm   1.6 km/h 68% 0 mm
18:35 4.7 °C -0.5 °C 1016.8 hPa Calm     69% 0 mm
18:39 4.7 °C -0.3 °C 1016.8 hPa Calm     70% 0 mm
18:45 4.8 °C -0.1 °C 1016.8 hPa Calm     71% 0 mm
18:50 4.8 °C -0.1 °C 1016.8 hPa Calm   3.2 km/h 71% 0 mm
18:55 4.8 °C -0.2 °C 1016.8 hPa Calm   3.2 km/h 70% 0 mm
19:00 4.8 °C -0.2 °C 1016.8 hPa Calm     70% 0 mm
19:05 4.8 °C -0.1 °C 1016.8 hPa Calm     71% 0 mm
19:10 4.8 °C 0.2 °C 1016.8 hPa Calm     72% 0 mm
19:14 4.8 °C 0.2 °C 1016.8 hPa Calm     72% 0 mm
19:20 4.8 °C 0.2 °C 1016.8 hPa Calm     72% 0 mm
19:30 4.8 °C 0.2 °C 1016.8 hPa Calm     72% 0 mm
19:35 4.8 °C 0.2 °C 1016.5 hPa Calm     72% 0 mm
19:45 4.8 °C 0.2 °C 1016.5 hPa Calm     72% 0 mm
19:50 4.8 °C 0.4 °C 1016.5 hPa Calm     73% 0 mm
19:55 4.8 °C 0.4 °C 1016.5 hPa Calm     73% 0 mm
19:59 4.8 °C 0.2 °C 1016.5 hPa Calm     72% 0 mm
20:05 4.8 °C 0.2 °C 1016.5 hPa Calm     72% 0 mm
20:10 4.8 °C 0.2 °C 1016.5 hPa Calm     72% 0 mm
20:15 4.8 °C 0.4 °C 1016.5 hPa Calm     73% 0 mm
20:20 4.8 °C 0.4 °C 1016.5 hPa Calm     73% 0 mm
20:25 4.8 °C 0.4 °C 1016.5 hPa Calm     73% 0 mm
20:30 4.8 °C 0.2 °C 1016.5 hPa Calm   1.6 km/h 72% 0 mm
20:35 4.7 °C -0.6 °C 1016.1 hPa Calm   3.2 km/h 69% 0 mm
20:40 4.6 °C -0.7 °C 1016.1 hPa Calm   3.2 km/h 69% 0 mm
20:50 4.4 °C -0.8 °C 1016.1 hPa Calm     69% 0 mm
20:55 4.3 °C -0.7 °C 1016.1 hPa Calm     70% 0 mm
21:00 4.3 °C -0.5 °C 1016.1 hPa Calm     71% 0 mm
21:05 4.3 °C -0.3 °C 1016.1 hPa Calm     72% 0 mm
21:09 4.3 °C -0.1 °C 1016.1 hPa Calm     73% 0 mm
21:15 4.4 °C 0.2 °C 1015.8 hPa Calm     74% 0 mm
21:19 4.4 °C 0.2 °C 1015.8 hPa Calm     74% 0 mm
21:25 4.3 °C -0.3 °C 1015.8 hPa Calm   3.2 km/h 72% 0 mm
21:29 4.3 °C -0.5 °C 1015.8 hPa Calm   3.2 km/h 71% 0 mm
21:35 4.2 °C -0.6 °C 1015.8 hPa Calm     71% 0 mm
21:45 4.2 °C -0.4 °C 1015.5 hPa Calm     72% 0 mm
21:54 4.2 °C -0.4 °C 1015.5 hPa Calm     72% 0 mm
22:00 4.2 °C -0.2 °C 1015.5 hPa Calm     73% 0 mm
22:05 4.2 °C 0 °C 1015.5 hPa Calm     74% 0 mm
22:15 4.2 °C 0.2 °C 1015.5 hPa Calm     75% 0 mm
22:19 4.2 °C 0.4 °C 1015.1 hPa Calm     76% 0 mm
22:25 4.3 °C 0.4 °C 1015.1 hPa Calm     76% 0 mm
22:35 4.3 °C 0.5 °C 1015.1 hPa Calm     76% 0 mm
22:45 4.4 °C 0.8 °C 1015.1 hPa Calm     77% 0 mm
22:50 4.6 °C 1.1 °C 1015.1 hPa NNW 1.6 km/h 3.2 km/h 78% 0 mm
22:55 4.6 °C 1.1 °C 1014.8 hPa NNW 1.6 km/h 4.8 km/h 78% 0 mm
23:04 4.7 °C 1.3 °C 1014.8 hPa Calm     79% 0 mm
23:10 4.7 °C 1.3 °C 1014.8 hPa Calm     79% 0 mm
23:15 4.6 °C 0.9 °C 1014.8 hPa Calm   3.2 km/h 77% 0 mm
23:19 4.6 °C 0.7 °C 1014.8 hPa Calm   3.2 km/h 76% 0 mm
23:24 4.5 °C 0.4 °C 1014.4 hPa Calm     75% 0 mm
23:30 4.4 °C 0.6 °C 1014.4 hPa Calm     76% 0 mm
23:35 4.5 °C 0.6 °C 1014.4 hPa Calm     76% 0 mm
23:40 4.5 °C 0.6 °C 1014.4 hPa Calm     76% 0 mm
23:50 4.6 °C 0.9 °C 1014.4 hPa Calm     77% 0 mm
23:55 4.6 °C 0.9 °C 1014.4 hPa Calm     77% 0 mm
Westford Weather
Compliments of Weather Underground

 
 
Current Radar Loop:

Copyright © WestfordWeather.net 2007-2014. All rights reserved.